Time;durP1;ratioP1;P1;durP2;ratioP2;P2;SDS_P1;SDS_P2;PMS_P1;PMS_P2;Temp;Humidity;BMP_temperature;BMP_pressure;BME280_temperature;BME280_humidity;BME280_pressure;Samples;Min_cycle;Max_cycle;Signal;HPM_P1;HPM_P2
2021/03/05 00:00:01;;;;;;;;;;;21.70;51.20;;;;;;5079059;28;19908;-54
2021/03/05 00:02:26;;;;;;;;;;;21.70;51.30;;;;;;5072777;28;19916;-54
2021/03/05 00:04:52;;;;;;;;;;;21.70;51.30;;;;;;5078019;28;19980;-54
2021/03/05 00:07:18;;;;;;;;;;;21.70;51.30;;;;;;5079377;28;20002;-54
2021/03/05 00:09:44;;;;;;;;;;;21.70;51.30;;;;;;5089067;28;19908;-55
2021/03/05 00:12:12;;;;;;;;;;;21.70;51.30;;;;;;5079433;28;19908;-55
2021/03/05 00:14:37;;;;;;;;;;;21.70;51.30;;;;;;5093000;28;20315;-55
2021/03/05 00:17:03;;;;;;;;;;;21.70;51.30;;;;;;5079491;28;19962;-55
2021/03/05 00:19:29;;;;;;;;;;;21.70;51.30;;;;;;5075223;28;19907;-55
2021/03/05 00:21:55;;;;;;;;;;;21.70;51.30;;;;;;5092759;28;20281;-55
2021/03/05 00:24:21;;;;;;;;;;;21.70;51.30;;;;;;5085561;28;19936;-54
2021/03/05 00:26:47;;;;;;;;;;;21.70;51.30;;;;;;5072384;28;19966;-54
2021/03/05 00:29:12;;;;;;;;;;;21.70;51.40;;;;;;5089331;28;20319;-54
2021/03/05 00:31:38;;;;;;;;;;;21.70;51.30;;;;;;5086250;28;19909;-54
2021/03/05 00:34:04;;;;;;;;;;;21.70;51.40;;;;;;5074724;28;19950;-54
2021/03/05 00:36:30;;;;;;;;;;;21.70;51.30;;;;;;5081371;28;19912;-55
2021/03/05 00:38:56;;;;;;;;;;;21.60;51.30;;;;;;5082866;28;19968;-54
2021/03/05 00:41:22;;;;;;;;;;;21.70;51.30;;;;;;5090951;28;19926;-55
2021/03/05 00:43:47;;;;;;;;;;;21.70;51.30;;;;;;5092192;28;20100;-55
2021/03/05 00:46:15;;;;;;;;;;;21.70;51.40;;;;;;5073764;28;20277;-55
2021/03/05 00:48:40;;;;;;;;;;;21.60;51.30;;;;;;5078833;28;19997;-55
2021/03/05 00:51:08;;;;;;;;;;;21.60;51.30;;;;;;5054281;28;19990;-55
2021/03/05 00:53:34;;;;;;;;;;;21.60;51.30;;;;;;5065890;28;19999;-55
2021/03/05 00:56:01;;;;;;;;;;;21.60;51.30;;;;;;5062419;28;19919;-53
2021/03/05 00:58:29;;;;;;;;;;;21.60;51.30;;;;;;5065424;28;19999;-54
2021/03/05 01:01:00;;;;;;;;;;;21.60;51.30;;;;;;5070452;28;19914;-54
2021/03/05 01:03:25;;;;;;;;;;;21.60;51.30;;;;;;5094318;28;19991;-54
2021/03/05 01:05:51;;;;;;;;;;;21.60;51.30;;;;;;5084311;28;19927;-54
2021/03/05 01:08:17;;;;;;;;;;;21.60;51.30;;;;;;5096227;28;19969;-55
2021/03/05 01:10:48;;;;;;;;;;;21.60;51.30;;;;;;5086322;28;19911;-56
2021/03/05 01:13:13;;;;;;;;;;;21.60;51.30;;;;;;5093604;28;21597;-54
2021/03/05 01:15:39;;;;;;;;;;;21.60;51.30;;;;;;5075921;28;19972;-54
2021/03/05 01:18:05;;;;;;;;;;;21.60;51.30;;;;;;5074018;28;19962;-54
2021/03/05 01:20:32;;;;;;;;;;;21.60;51.40;;;;;;5094987;28;20336;-54
2021/03/05 01:22:58;;;;;;;;;;;21.60;51.40;;;;;;5095635;28;19996;-54
2021/03/05 01:25:25;;;;;;;;;;;21.60;51.40;;;;;;5095092;28;20316;-54
2021/03/05 01:27:52;;;;;;;;;;;21.60;51.30;;;;;;5091316;28;19912;-54
2021/03/05 01:30:18;;;;;;;;;;;21.60;51.40;;;;;;5067777;28;19915;-54
2021/03/05 01:32:44;;;;;;;;;;;21.60;51.30;;;;;;5071850;28;19915;-54
2021/03/05 01:35:11;;;;;;;;;;;21.60;51.40;;;;;;5086947;28;19932;-54
2021/03/05 01:37:37;;;;;;;;;;;21.60;51.40;;;;;;5088064;28;19912;-54
2021/03/05 01:40:04;;;;;;;;;;;21.60;51.30;;;;;;5064392;28;19916;-54
2021/03/05 01:42:30;;;;;;;;;;;21.60;51.30;;;;;;5095632;28;19908;-54
2021/03/05 01:44:56;;;;;;;;;;;21.60;51.30;;;;;;5087966;28;19919;-55
2021/03/05 01:47:21;;;;;;;;;;;21.60;51.30;;;;;;5075351;28;19916;-54
2021/03/05 01:49:47;;;;;;;;;;;21.60;51.30;;;;;;5075269;28;19908;-55
2021/03/05 01:52:13;;;;;;;;;;;21.50;51.30;;;;;;5082604;28;20352;-55
2021/03/05 01:54:39;;;;;;;;;;;21.60;51.30;;;;;;5094841;28;19908;-55
2021/03/05 01:57:05;;;;;;;;;;;21.50;51.30;;;;;;5076986;28;19997;-55
2021/03/05 01:59:31;;;;;;;;;;;21.50;51.30;;;;;;5074901;28;19909;-55
2021/03/05 02:02:01;;;;;;;;;;;21.50;51.30;;;;;;5077893;28;19916;-55
2021/03/05 02:04:27;;;;;;;;;;;21.50;51.40;;;;;;5093579;28;19997;-55
2021/03/05 02:06:53;;;;;;;;;;;21.60;51.40;;;;;;5075131;28;19955;-55
2021/03/05 02:09:19;;;;;;;;;;;21.50;51.40;;;;;;5086487;28;19908;-55
2021/03/05 02:11:45;;;;;;;;;;;21.60;51.50;;;;;;5095047;28;20365;-55
2021/03/05 02:14:11;;;;;;;;;;;21.50;51.40;;;;;;5094376;28;20447;-55
2021/03/05 02:16:52;;;;;;;;;;;21.50;51.40;;;;;;5094839;28;19962;-55
2021/03/05 02:19:28;;;;;;;;;;;21.50;51.40;;;;;;5083150;28;19931;-54
2021/03/05 02:22:10;;;;;;;;;;;21.50;51.40;;;;;;5074840;28;19915;-55
2021/03/05 02:24:54;;;;;;;;;;;21.50;51.40;;;;;;5087692;28;19908;-55
2021/03/05 02:27:26;;;;;;;;;;;21.50;51.40;;;;;;5094882;28;19908;-55
2021/03/05 02:30:12;;;;;;;;;;;21.50;51.40;;;;;;5079825;28;19919;-55
2021/03/05 02:32:40;;;;;;;;;;;21.50;51.40;;;;;;5033431;28;19908;-55
2021/03/05 02:35:07;;;;;;;;;;;21.50;51.60;;;;;;5090802;28;19912;-55
2021/03/05 02:37:35;;;;;;;;;;;21.50;51.40;;;;;;5110163;28;20591;-55
2021/03/05 02:40:03;;;;;;;;;;;21.50;51.40;;;;;;5061669;28;19912;-54
2021/03/05 02:42:42;;;;;;;;;;;21.50;51.40;;;;;;5074207;28;19908;-55
2021/03/05 02:45:15;;;;;;;;;;;21.50;51.40;;;;;;5089381;28;19908;-54
2021/03/05 02:47:42;;;;;;;;;;;21.50;51.40;;;;;;5094393;28;20419;-54
2021/03/05 02:50:09;;;;;;;;;;;21.50;51.40;;;;;;5074567;28;19915;-54
2021/03/05 02:52:36;;;;;;;;;;;21.50;51.40;;;;;;5094208;28;19904;-54
2021/03/05 02:55:04;;;;;;;;;;;21.50;51.40;;;;;;5080498;28;19912;-54
2021/03/05 02:57:31;;;;;;;;;;;21.50;51.40;;;;;;5073085;28;19912;-54
2021/03/05 02:59:57;;;;;;;;;;;21.50;51.40;;;;;;5089269;28;19915;-54
2021/03/05 03:02:25;;;;;;;;;;;21.50;51.40;;;;;;5091719;28;20035;-55
2021/03/05 03:04:52;;;;;;;;;;;21.50;51.40;;;;;;5093386;28;19927;-54
2021/03/05 03:07:18;;;;;;;;;;;21.50;51.40;;;;;;5078991;28;20358;-55
2021/03/05 03:09:45;;;;;;;;;;;21.50;51.40;;;;;;5073007;28;20289;-54
2021/03/05 03:12:11;;;;;;;;;;;21.50;51.40;;;;;;5085341;28;19915;-55
2021/03/05 03:14:38;;;;;;;;;;;21.50;51.40;;;;;;5093118;28;19904;-55
2021/03/05 03:17:06;;;;;;;;;;;21.50;51.40;;;;;;5081491;28;19962;-55
2021/03/05 03:19:32;;;;;;;;;;;21.50;51.40;;;;;;5073489;28;20385;-55
2021/03/05 03:21:58;;;;;;;;;;;21.50;51.40;;;;;;5082018;28;19911;-55
2021/03/05 03:24:24;;;;;;;;;;;21.50;51.40;;;;;;5093591;28;19973;-55
2021/03/05 03:26:50;;;;;;;;;;;21.50;51.40;;;;;;5092991;28;20354;-55
2021/03/05 03:29:17;;;;;;;;;;;21.50;51.40;;;;;;5093493;28;19909;-56
2021/03/05 03:31:44;;;;;;;;;;;21.50;51.40;;;;;;5085735;28;20382;-55
2021/03/05 03:34:10;;;;;;;;;;;21.50;51.40;;;;;;5072357;28;19911;-55
2021/03/05 03:36:36;;;;;;;;;;;21.50;51.40;;;;;;5077447;28;19919;-55
2021/03/05 03:39:03;;;;;;;;;;;21.50;51.40;;;;;;5093143;28;19908;-54
2021/03/05 03:41:29;;;;;;;;;;;21.40;51.40;;;;;;5090147;28;19908;-55
2021/03/05 03:43:55;;;;;;;;;;;21.50;51.50;;;;;;5072982;28;19908;-55
2021/03/05 03:46:20;;;;;;;;;;;21.50;51.50;;;;;;5074313;28;19954;-55
2021/03/05 03:48:51;;;;;;;;;;;21.50;51.50;;;;;;5093320;28;19915;-54
2021/03/05 03:51:20;;;;;;;;;;;21.50;51.50;;;;;;5092276;28;19908;-55
2021/03/05 03:53:46;;;;;;;;;;;21.40;51.50;;;;;;5072813;28;19912;-54
2021/03/05 03:56:13;;;;;;;;;;;21.50;51.50;;;;;;5072675;28;19913;-55
2021/03/05 03:58:40;;;;;;;;;;;21.50;51.60;;;;;;5092451;28;20376;-55
2021/03/05 04:01:08;;;;;;;;;;;21.50;51.60;;;;;;5093258;28;19904;-55
2021/03/05 04:03:35;;;;;;;;;;;21.50;51.60;;;;;;5074423;28;19913;-55
2021/03/05 04:06:03;;;;;;;;;;;21.50;51.60;;;;;;5072531;28;19920;-55
2021/03/05 04:08:29;;;;;;;;;;;21.50;51.60;;;;;;5088583;28;19915;-55
2021/03/05 04:10:55;;;;;;;;;;;21.50;51.60;;;;;;5093019;28;20266;-55
2021/03/05 04:13:21;;;;;;;;;;;21.50;51.60;;;;;;5076962;28;20306;-55
2021/03/05 04:15:47;;;;;;;;;;;21.50;51.60;;;;;;5072556;28;19908;-54
2021/03/05 04:18:14;;;;;;;;;;;21.50;51.60;;;;;;5086501;28;19977;-55
2021/03/05 04:20:41;;;;;;;;;;;21.50;51.60;;;;;;5092842;28;20430;-55
2021/03/05 04:23:07;;;;;;;;;;;21.50;51.60;;;;;;5079863;28;19961;-55
2021/03/05 04:25:33;;;;;;;;;;;21.50;51.60;;;;;;5072514;28;19911;-54
2021/03/05 04:27:59;;;;;;;;;;;21.40;51.60;;;;;;5083300;28;20311;-55
2021/03/05 04:30:25;;;;;;;;;;;21.50;51.60;;;;;;5092754;28;20405;-55
2021/03/05 04:32:51;;;;;;;;;;;21.40;51.60;;;;;;5085034;28;19953;-55
2021/03/05 04:35:17;;;;;;;;;;;21.50;51.60;;;;;;5076831;28;19962;-55
2021/03/05 04:37:43;;;;;;;;;;;21.50;51.60;;;;;;5076470;28;19960;-55
2021/03/05 04:40:09;;;;;;;;;;;21.40;51.60;;;;;;5080976;28;19904;-55
2021/03/05 04:42:36;;;;;;;;;;;21.50;51.70;;;;;;5096919;28;20020;-55
2021/03/05 04:45:02;;;;;;;;;;;21.50;51.70;;;;;;5093607;28;19998;-57
2021/03/05 04:47:28;;;;;;;;;;;21.50;51.70;;;;;;5076300;28;19909;-57
2021/03/05 04:49:54;;;;;;;;;;;21.50;51.60;;;;;;5077635;28;19908;-58
2021/03/05 04:52:20;;;;;;;;;;;21.50;51.60;;;;;;5096658;28;19978;-58
2021/03/05 04:54:45;;;;;;;;;;;21.40;51.60;;;;;;5085328;28;20362;-58
2021/03/05 04:57:11;;;;;;;;;;;21.40;51.60;;;;;;5076204;28;19916;-58
2021/03/05 04:59:37;;;;;;;;;;;21.50;51.60;;;;;;5076975;28;19908;-57
2021/03/05 05:02:03;;;;;;;;;;;21.40;51.60;;;;;;5077208;28;20389;-58
2021/03/05 05:04:29;;;;;;;;;;;21.40;51.60;;;;;;5083047;28;20261;-58
2021/03/05 05:06:54;;;;;;;;;;;21.40;51.60;;;;;;5095988;28;20253;-57
2021/03/05 05:09:20;;;;;;;;;;;21.40;51.60;;;;;;5090141;28;20396;-57
2021/03/05 05:11:46;;;;;;;;;;;21.40;51.60;;;;;;5076160;28;19955;-57
2021/03/05 05:14:12;;;;;;;;;;;21.40;51.60;;;;;;5079430;28;19919;-58
2021/03/05 05:16:38;;;;;;;;;;;21.40;51.60;;;;;;5096017;28;20277;-58
2021/03/05 05:19:04;;;;;;;;;;;21.40;51.60;;;;;;5075705;28;19908;-58
2021/03/05 05:21:30;;;;;;;;;;;21.40;51.60;;;;;;5075799;28;19914;-58
2021/03/05 05:23:56;;;;;;;;;;;21.40;51.60;;;;;;5075732;28;19915;-57
2021/03/05 05:26:22;;;;;;;;;;;21.40;51.60;;;;;;5095996;28;19912;-58
2021/03/05 05:28:47;;;;;;;;;;;21.40;51.60;;;;;;5094716;28;19916;-58
2021/03/05 05:31:13;;;;;;;;;;;21.40;51.60;;;;;;5088243;28;20247;-56
2021/03/05 05:33:39;;;;;;;;;;;21.40;51.60;;;;;;5093426;28;19915;-60
2021/03/05 05:36:05;;;;;;;;;;;21.40;51.60;;;;;;5094455;28;20352;-61
2021/03/05 05:38:31;;;;;;;;;;;21.40;51.60;;;;;;5079224;28;19915;-60
2021/03/05 05:41:00;;;;;;;;;;;21.40;51.60;;;;;;5079559;28;19918;-61
2021/03/05 05:43:31;;;;;;;;;;;21.40;51.60;;;;;;5074437;28;19909;-60
2021/03/05 05:46:02;;;;;;;;;;;21.40;51.60;;;;;;5082769;28;19908;-57
2021/03/05 05:48:28;;;;;;;;;;;21.40;51.60;;;;;;5077078;28;19959;-60
2021/03/05 05:50:54;;;;;;;;;;;21.40;51.60;;;;;;5064386;28;20357;-61
2021/03/05 05:53:21;;;;;;;;;;;21.40;51.60;;;;;;5094630;28;20312;-60
2021/03/05 05:55:47;;;;;;;;;;;21.40;51.60;;;;;;5075150;28;20014;-61
2021/03/05 05:58:15;;;;;;;;;;;21.40;51.60;;;;;;5075106;28;19998;-60
2021/03/05 06:00:40;;;;;;;;;;;21.40;51.60;;;;;;5088636;28;19908;-60
2021/03/05 06:03:07;;;;;;;;;;;21.40;51.60;;;;;;5089354;28;19931;-61
2021/03/05 06:05:33;;;;;;;;;;;21.40;51.60;;;;;;5093467;28;19962;-61
2021/03/05 06:07:59;;;;;;;;;;;21.40;51.60;;;;;;5095156;28;19911;-60
2021/03/05 06:10:25;;;;;;;;;;;21.40;51.60;;;;;;5093056;28;20393;-61
2021/03/05 06:12:51;;;;;;;;;;;21.40;51.60;;;;;;5083541;28;19914;-60
2021/03/05 06:15:17;;;;;;;;;;;21.40;51.70;;;;;;5095072;28;19908;-61
2021/03/05 06:17:44;;;;;;;;;;;21.40;51.70;;;;;;5093257;28;19917;-58
2021/03/05 06:20:11;;;;;;;;;;;21.40;51.60;;;;;;5094865;28;19969;-58
2021/03/05 06:22:37;;;;;;;;;;;21.40;51.70;;;;;;5095223;28;19908;-60
2021/03/05 06:25:03;;;;;;;;;;;21.40;51.70;;;;;;5094888;28;19915;-61
2021/03/05 06:27:29;;;;;;;;;;;21.40;51.70;;;;;;5094529;28;19904;-60
2021/03/05 06:29:56;;;;;;;;;;;21.30;51.60;;;;;;5082709;28;20442;-61
2021/03/05 06:32:32;;;;;;;;;;;21.40;51.70;;;;;;5074480;28;20002;-61
2021/03/05 06:34:58;;;;;;;;;;;21.30;51.60;;;;;;5074406;28;19947;-60
2021/03/05 06:37:25;;;;;;;;;;;21.40;51.70;;;;;;5074206;28;20381;-60
2021/03/05 06:39:58;;;;;;;;;;;21.30;51.70;;;;;;5084354;28;19994;-60
2021/03/05 06:42:23;;;;;;;;;;;21.40;51.70;;;;;;5092283;28;19908;-61
2021/03/05 06:44:49;;;;;;;;;;;21.30;51.70;;;;;;5082903;28;19908;-61
2021/03/05 06:47:16;;;;;;;;;;;21.40;51.70;;;;;;5067361;28;20398;-59
2021/03/05 06:49:43;;;;;;;;;;;21.30;51.70;;;;;;5086456;28;19935;-62
2021/03/05 06:52:09;;;;;;;;;;;21.30;51.80;;;;;;5085598;28;20374;-59
2021/03/05 06:54:36;;;;;;;;;;;21.40;51.70;;;;;;5073853;28;19908;-59
2021/03/05 06:57:03;;;;;;;;;;;21.30;51.70;;;;;;5086920;28;19912;-59
2021/03/05 06:59:34;;;;;;;;;;;21.30;51.60;;;;;;5076003;28;20366;-58
2021/03/05 07:02:00;;;;;;;;;;;21.30;51.70;;;;;;5073797;28;19912;-57
2021/03/05 07:04:27;;;;;;;;;;;21.40;51.70;;;;;;5073923;28;19948;-59
2021/03/05 07:07:02;;;;;;;;;;;21.30;51.70;;;;;;5085864;28;20006;-59
2021/03/05 07:09:38;;;;;;;;;;;21.30;51.70;;;;;;5073615;28;20351;-59
2021/03/05 07:12:14;;;;;;;;;;;21.30;51.70;;;;;;5089526;28;19953;-60
2021/03/05 07:14:41;;;;;;;;;;;21.30;51.70;;;;;;5093622;28;19953;-60
2021/03/05 07:17:07;;;;;;;;;;;21.30;51.70;;;;;;5093403;28;19935;-60
2021/03/05 07:19:34;;;;;;;;;;;21.30;51.80;;;;;;5093526;28;19908;-59
2021/03/05 07:22:00;;;;;;;;;;;21.30;51.80;;;;;;5075377;28;20358;-59
2021/03/05 07:24:26;;;;;;;;;;;21.30;51.80;;;;;;5093820;28;20300;-61
2021/03/05 07:26:54;;;;;;;;;;;21.40;51.80;;;;;;5093750;28;19943;-59
2021/03/05 07:29:21;;;;;;;;;;;21.40;51.80;;;;;;5093641;28;19908;-58
2021/03/05 07:31:55;;;;;;;;;;;21.30;51.80;;;;;;5093761;28;19908;-60
2021/03/05 07:34:22;;;;;;;;;;;21.40;51.80;;;;;;5093913;28;19916;-60
2021/03/05 07:36:49;;;;;;;;;;;21.30;51.60;;;;;;5093176;28;19916;-61
2021/03/05 07:39:23;;;;;;;;;;;21.40;51.50;;;;;;5093514;28;20747;-60
2021/03/05 07:41:50;;;;;;;;;;;21.30;51.50;;;;;;5093497;28;19908;-60
2021/03/05 07:44:16;;;;;;;;;;;21.30;51.50;;;;;;5093166;28;19994;-60
2021/03/05 07:46:42;;;;;;;;;;;21.30;51.50;;;;;;5092546;28;19962;-59
2021/03/05 07:49:08;;;;;;;;;;;21.30;51.50;;;;;;5093107;28;19908;-59
2021/03/05 07:51:35;;;;;;;;;;;21.20;51.60;;;;;;5093103;28;19977;-57
2021/03/05 07:54:00;;;;;;;;;;;21.20;51.60;;;;;;5093022;28;19990;-57
2021/03/05 07:56:38;;;;;;;;;;;21.20;51.60;;;;;;5092749;28;19915;-58
2021/03/05 07:59:05;;;;;;;;;;;21.30;51.70;;;;;;5092997;28;19908;-58
2021/03/05 08:01:49;;;;;;;;;;;21.20;51.70;;;;;;5092649;28;19916;-57
2021/03/05 08:04:14;;;;;;;;;;;21.30;51.90;;;;;;5092493;28;19961;-59
2021/03/05 08:06:40;;;;;;;;;;;21.30;51.90;;;;;;5092330;28;19908;-59
2021/03/05 08:09:07;;;;;;;;;;;21.30;52.00;;;;;;5092297;28;19911;-61
2021/03/05 08:11:36;;;;;;;;;;;21.30;52.00;;;;;;5092514;28;19911;-59
2021/03/05 08:14:22;;;;;;;;;;;21.30;52.00;;;;;;5092411;28;20377;-58
2021/03/05 08:16:48;;;;;;;;;;;21.40;52.00;;;;;;5091819;28;20419;-57
2021/03/05 08:19:15;;;;;;;;;;;21.40;52.00;;;;;;5092387;28;19915;-60
2021/03/05 08:21:50;;;;;;;;;;;21.40;52.00;;;;;;5092463;28;19950;-60
2021/03/05 08:24:19;;;;;;;;;;;21.40;52.00;;;;;;5092242;28;19958;-57
2021/03/05 08:27:01;;;;;;;;;;;21.50;52.00;;;;;;5092940;28;19908;-56
2021/03/05 08:29:46;;;;;;;;;;;21.50;51.90;;;;;;5089148;28;19908;-60
2021/03/05 08:32:30;;;;;;;;;;;21.50;51.80;;;;;;5090969;28;19912;-60
2021/03/05 08:34:56;;;;;;;;;;;21.50;51.90;;;;;;5081850;28;19908;-58
2021/03/05 08:37:28;;;;;;;;;;;21.50;51.90;;;;;;5082690;28;20384;-58
2021/03/05 08:40:09;;;;;;;;;;;21.50;51.80;;;;;;5089815;28;20396;-58
2021/03/05 08:42:39;;;;;;;;;;;21.50;51.80;;;;;;5090076;28;20503;-57
2021/03/05 08:45:06;;;;;;;;;;;21.60;51.80;;;;;;5073706;28;19923;-58
2021/03/05 08:47:34;;;;;;;;;;;21.60;51.80;;;;;;5090960;28;19904;-57
2021/03/05 08:50:00;;;;;;;;;;;21.60;51.70;;;;;;5080549;28;19915;-57
2021/03/05 08:52:25;;;;;;;;;;;21.60;51.70;;;;;;5082864;28;19908;-57
2021/03/05 08:54:52;;;;;;;;;;;21.60;51.70;;;;;;5090867;28;19912;-56
2021/03/05 08:57:18;;;;;;;;;;;21.60;51.80;;;;;;5092323;28;19919;-57
2021/03/05 08:59:48;;;;;;;;;;;21.60;51.70;;;;;;5092394;28;20341;-54
2021/03/05 09:02:14;;;;;;;;;;;21.60;51.80;;;;;;5092214;28;19912;-58
2021/03/05 09:04:39;;;;;;;;;;;21.60;51.80;;;;;;5092219;28;19924;-57
2021/03/05 09:07:06;;;;;;;;;;;21.60;51.80;;;;;;5092130;28;19912;-56
2021/03/05 09:09:32;;;;;;;;;;;21.60;51.80;;;;;;5092194;28;19977;-55
2021/03/05 09:12:09;;;;;;;;;;;21.60;51.70;;;;;;5091674;28;20005;-59
2021/03/05 09:14:35;;;;;;;;;;;21.60;52.80;;;;;;5092209;28;20288;-58
2021/03/05 09:17:02;;;;;;;;;;;21.60;51.70;;;;;;5092289;28;19965;-57
2021/03/05 09:19:44;;;;;;;;;;;21.60;51.70;;;;;;5094886;28;19958;-54
2021/03/05 09:22:14;;;;;;;;;;;21.60;51.70;;;;;;5096330;28;20007;-53
2021/03/05 09:24:47;;;;;;;;;;;21.60;51.70;;;;;;5096229;28;20380;-57
2021/03/05 09:27:16;;;;;;;;;;;21.60;52.30;;;;;;5096109;28;20007;-55
2021/03/05 09:29:42;;;;;;;;;;;21.60;51.80;;;;;;5095535;28;19912;-56
2021/03/05 09:32:08;;;;;;;;;;;21.60;51.90;;;;;;5095394;28;19908;-61
2021/03/05 09:34:34;;;;;;;;;;;21.60;51.80;;;;;;5094236;28;19904;-59
2021/03/05 09:37:00;;;;;;;;;;;21.60;51.80;;;;;;5094943;28;19912;-61
2021/03/05 09:39:25;;;;;;;;;;;21.50;51.80;;;;;;5094668;28;20273;-59
2021/03/05 09:41:51;;;;;;;;;;;21.50;51.80;;;;;;5076696;28;19911;-59
2021/03/05 09:44:17;;;;;;;;;;;21.50;51.80;;;;;;5094672;28;19900;-58
2021/03/05 09:46:44;;;;;;;;;;;21.50;51.90;;;;;;5094903;28;19947;-58
2021/03/05 09:49:23;;;;;;;;;;;21.50;51.90;;;;;;5094995;28;19904;-59
2021/03/05 09:51:49;;;;;;;;;;;21.50;52.00;;;;;;5094781;28;19908;-58
2021/03/05 09:54:15;;;;;;;;;;;21.50;52.00;;;;;;5094586;28;19915;-58
2021/03/05 09:56:41;;;;;;;;;;;21.60;52.10;;;;;;5094589;28;19915;-58
2021/03/05 09:59:07;;;;;;;;;;;21.60;52.10;;;;;;5094518;28;19915;-59
2021/03/05 10:01:37;;;;;;;;;;;21.60;52.10;;;;;;5094578;28;20300;-59
2021/03/05 10:04:04;;;;;;;;;;;21.70;52.10;;;;;;5094230;28;19908;-59
2021/03/05 10:06:31;;;;;;;;;;;21.70;52.10;;;;;;5076196;28;19908;-58
2021/03/05 10:09:05;;;;;;;;;;;21.70;52.10;;;;;;5094273;28;20362;-57
2021/03/05 10:11:36;;;;;;;;;;;21.70;52.00;;;;;;5094908;28;19912;-57
2021/03/05 10:14:03;;;;;;;;;;;21.80;52.00;;;;;;5094418;28;19918;-58
2021/03/05 10:16:33;;;;;;;;;;;21.80;52.00;;;;;;5093293;28;19916;-57
2021/03/05 10:19:01;;;;;;;;;;;21.80;52.10;;;;;;5075942;28;20277;-58
2021/03/05 10:21:27;;;;;;;;;;;21.90;52.00;;;;;;5094472;28;19912;-61
2021/03/05 10:23:53;;;;;;;;;;;21.80;52.00;;;;;;5076169;28;20326;-61
2021/03/05 10:26:20;;;;;;;;;;;21.90;52.20;;;;;;5094235;28;19947;-68
2021/03/05 10:28:47;;;;;;;;;;;21.90;52.30;;;;;;5095739;28;19914;-61
2021/03/05 10:31:13;;;;;;;;;;;22.00;52.40;;;;;;5060084;28;19908;-64
2021/03/05 10:33:40;;;;;;;;;;;22.00;52.40;;;;;;5076519;28;19904;-60
2021/03/05 10:36:06;;;;;;;;;;;22.20;52.50;;;;;;5076658;28;19918;-63
2021/03/05 10:38:33;;;;;;;;;;;22.30;52.40;;;;;;5094557;28;20277;-61
2021/03/05 10:40:59;;;;;;;;;;;22.30;52.20;;;;;;5076261;28;20410;-60
2021/03/05 10:43:25;;;;;;;;;;;22.40;52.10;;;;;;5094506;28;19904;-60
2021/03/05 10:45:51;;;;;;;;;;;22.50;52.00;;;;;;5094237;28;19908;-58
2021/03/05 10:48:17;;;;;;;;;;;22.50;51.80;;;;;;5093117;28;19915;-57
2021/03/05 10:50:42;;;;;;;;;;;22.60;51.70;;;;;;5076474;28;19908;-62
2021/03/05 10:53:08;;;;;;;;;;;22.60;51.60;;;;;;5093901;28;19959;-58
2021/03/05 10:55:34;;;;;;;;;;;22.70;51.60;;;;;;5092186;28;20253;-58
2021/03/05 10:58:00;;;;;;;;;;;22.70;51.60;;;;;;5075652;28;20002;-56
2021/03/05 11:00:26;;;;;;;;;;;22.80;51.50;;;;;;5075752;28;19949;-56
2021/03/05 11:02:52;;;;;;;;;;;22.80;51.30;;;;;;5076117;28;19915;-53
2021/03/05 11:05:18;;;;;;;;;;;22.70;51.10;;;;;;5094063;28;19918;-57
2021/03/05 11:07:44;;;;;;;;;;;22.80;51.10;;;;;;5093739;28;20352;-60
2021/03/05 11:10:10;;;;;;;;;;;22.80;51.10;;;;;;5093737;28;19958;-58
2021/03/05 11:12:35;;;;;;;;;;;22.80;51.10;;;;;;5093528;28;20361;-60
2021/03/05 11:15:03;;;;;;;;;;;22.80;51.10;;;;;;5093391;28;19908;-61
2021/03/05 11:17:29;;;;;;;;;;;22.80;51.10;;;;;;5093505;28;20014;-59
2021/03/05 11:19:56;;;;;;;;;;;22.90;51.20;;;;;;5093563;28;19903;-57
2021/03/05 11:22:22;;;;;;;;;;;22.90;51.20;;;;;;5083993;28;19912;-59
2021/03/05 11:24:48;;;;;;;;;;;22.90;51.70;;;;;;5048575;28;19907;-56
2021/03/05 11:27:13;;;;;;;;;;;22.90;51.10;;;;;;5093764;28;19915;-57
2021/03/05 11:29:39;;;;;;;;;;;23.00;51.10;;;;;;5093559;28;19908;-57
2021/03/05 11:32:08;;;;;;;;;;;22.90;51.10;;;;;;5093909;28;19904;-61
2021/03/05 11:34:35;;;;;;;;;;;23.00;51.10;;;;;;5093031;28;19915;-59
2021/03/05 11:37:01;;;;;;;;;;;23.00;51.00;;;;;;5093063;28;19911;-61
2021/03/05 11:39:26;;;;;;;;;;;23.00;50.90;;;;;;5075501;28;19904;-59
2021/03/05 11:41:54;;;;;;;;;;;23.00;50.80;;;;;;5092509;28;19912;-61
2021/03/05 11:44:20;;;;;;;;;;;23.00;50.80;;;;;;5075054;28;19910;-53
2021/03/05 11:46:46;;;;;;;;;;;23.10;50.80;;;;;;5092994;28;19908;-55
2021/03/05 11:49:12;;;;;;;;;;;23.10;50.70;;;;;;5092933;28;20280;-56
2021/03/05 11:51:38;;;;;;;;;;;23.10;50.70;;;;;;5075010;28;20360;-56
2021/03/05 11:54:05;;;;;;;;;;;23.10;50.60;;;;;;5093561;28;20021;-56
2021/03/05 11:56:31;;;;;;;;;;;23.20;50.50;;;;;;5093033;28;20036;-56
2021/03/05 11:58:56;;;;;;;;;;;23.20;50.50;;;;;;5093001;28;20631;-58
2021/03/05 12:01:22;;;;;;;;;;;23.20;50.50;;;;;;5093497;28;19951;-60
2021/03/05 12:03:48;;;;;;;;;;;23.30;50.50;;;;;;5092918;28;19954;-61
2021/03/05 12:06:14;;;;;;;;;;;23.30;50.40;;;;;;5074791;28;19934;-64
2021/03/05 12:08:40;;;;;;;;;;;23.40;50.30;;;;;;5091892;28;19954;-60
2021/03/05 12:11:06;;;;;;;;;;;23.30;50.20;;;;;;5091892;28;20310;-61
2021/03/05 12:13:31;;;;;;;;;;;23.40;50.10;;;;;;5092996;28;20384;-60
2021/03/05 12:15:57;;;;;;;;;;;23.40;50.00;;;;;;5075098;28;19953;-60
2021/03/05 12:18:23;;;;;;;;;;;23.40;50.00;;;;;;5074798;28;20295;-60
2021/03/05 12:20:49;;;;;;;;;;;23.40;49.90;;;;;;5092960;28;19933;-58
2021/03/05 12:23:15;;;;;;;;;;;23.40;49.80;;;;;;5092646;28;19904;-57
2021/03/05 12:25:40;;;;;;;;;;;23.40;49.80;;;;;;5092428;28;19915;-59
2021/03/05 12:28:06;;;;;;;;;;;23.40;49.70;;;;;;5092392;28;19907;-60
2021/03/05 12:30:32;;;;;;;;;;;23.30;49.70;;;;;;5092321;28;19908;-59
2021/03/05 12:32:58;;;;;;;;;;;23.30;49.70;;;;;;5092402;28;19998;-60
2021/03/05 12:35:24;;;;;;;;;;;23.30;49.80;;;;;;5092280;28;20285;-64
2021/03/05 12:37:50;;;;;;;;;;;23.20;49.70;;;;;;5092463;28;19939;-61
2021/03/05 12:40:16;;;;;;;;;;;23.20;49.70;;;;;;5090731;28;19916;-63
2021/03/05 12:42:42;;;;;;;;;;;23.20;49.70;;;;;;5092646;28;19912;-59
2021/03/05 12:45:09;;;;;;;;;;;23.20;50.20;;;;;;5092438;28;19908;-60
2021/03/05 12:47:35;;;;;;;;;;;23.10;49.60;;;;;;5074166;28;19957;-59
2021/03/05 12:50:02;;;;;;;;;;;23.00;49.60;;;;;;5074382;28;20383;-59
2021/03/05 12:52:28;;;;;;;;;;;23.00;49.70;;;;;;5074242;28;20079;-58
2021/03/05 12:54:54;;;;;;;;;;;23.00;49.80;;;;;;5094423;28;20389;-60
2021/03/05 12:57:20;;;;;;;;;;;22.90;49.80;;;;;;5078032;28;19957;-59
2021/03/05 12:59:46;;;;;;;;;;;22.90;49.80;;;;;;5078132;28;19991;-59
2021/03/05 13:02:12;;;;;;;;;;;22.80;49.90;;;;;;5096400;28;20011;-59
2021/03/05 13:04:38;;;;;;;;;;;22.80;49.90;;;;;;5096045;28;20280;-61
2021/03/05 13:07:04;;;;;;;;;;;22.80;50.00;;;;;;5095854;28;19908;-59
2021/03/05 13:09:30;;;;;;;;;;;22.70;50.00;;;;;;5096025;28;19908;-62
2021/03/05 13:11:56;;;;;;;;;;;22.70;50.10;;;;;;5094496;28;19908;-62
2021/03/05 13:14:22;;;;;;;;;;;22.70;50.10;;;;;;5095707;28;19911;-60
2021/03/05 13:16:48;;;;;;;;;;;22.70;50.20;;;;;;5094371;28;19923;-60
2021/03/05 13:19:14;;;;;;;;;;;22.70;50.30;;;;;;5095931;28;20284;-60
2021/03/05 13:21:40;;;;;;;;;;;22.60;50.30;;;;;;5095532;28;20422;-57
2021/03/05 13:24:06;;;;;;;;;;;22.60;50.40;;;;;;5095749;28;20041;-62
2021/03/05 13:26:32;;;;;;;;;;;22.60;50.50;;;;;;5095641;28;19958;-62
2021/03/05 13:28:58;;;;;;;;;;;22.60;50.50;;;;;;5090159;28;20317;-61
2021/03/05 13:31:24;;;;;;;;;;;22.50;50.50;;;;;;5083385;28;19908;-61
2021/03/05 13:33:49;;;;;;;;;;;22.50;50.60;;;;;;5083362;28;19912;-59
2021/03/05 13:36:18;;;;;;;;;;;22.50;50.70;;;;;;5063375;28;19916;-59
2021/03/05 13:38:44;;;;;;;;;;;22.50;50.80;;;;;;5084368;28;19916;-59
2021/03/05 13:41:10;;;;;;;;;;;22.40;50.80;;;;;;5086656;28;19995;-59
2021/03/05 13:43:36;;;;;;;;;;;22.40;50.80;;;;;;5061663;28;19904;-58
2021/03/05 13:46:02;;;;;;;;;;;22.40;50.90;;;;;;5082922;28;19976;-59
2021/03/05 13:48:28;;;;;;;;;;;22.40;51.00;;;;;;5049848;28;20432;-59
2021/03/05 13:50:54;;;;;;;;;;;22.40;51.00;;;;;;5073014;28;19905;-58
2021/03/05 13:53:20;;;;;;;;;;;22.30;51.10;;;;;;5081184;28;19908;-58
2021/03/05 13:55:45;;;;;;;;;;;22.40;51.20;;;;;;5089530;28;20282;-60
2021/03/05 13:58:11;;;;;;;;;;;22.30;51.10;;;;;;5072202;28;19997;-59
2021/03/05 14:00:37;;;;;;;;;;;22.30;51.20;;;;;;5068839;28;19912;-59
2021/03/05 14:03:03;;;;;;;;;;;22.20;51.20;;;;;;5082379;28;19938;-59
2021/03/05 14:05:30;;;;;;;;;;;22.30;51.30;;;;;;5081292;28;19912;-58
2021/03/05 14:07:56;;;;;;;;;;;22.30;51.30;;;;;;5064352;28;19916;-61
2021/03/05 14:10:22;;;;;;;;;;;22.30;51.40;;;;;;5080587;28;19912;-59
2021/03/05 14:12:48;;;;;;;;;;;22.30;51.40;;;;;;5067622;28;19908;-59
2021/03/05 14:15:14;;;;;;;;;;;22.30;51.50;;;;;;5063954;28;19911;-59